Terminal Aerodrome Forecast
Issued by NWS

Home | Current Version | Previous Version | Graphics & Text | Print | Product List | Glossary On
Versions: 1 2 3 4 5 6 7 8 9 10 11 12 13 14
000
FTUS45 KGGW 240525
TAFSDY
TAF
KSDY 240525Z 2406/2506 08009KT 2SM -SHSNRA OVC005
     FM240900 07006KT 1 1/2SM -FZRA OVC010
     FM241200 05004KT 4SM BR VCSH OVC008
     FM241500 35005KT P6SM OVC005
     FM242300 02009KT P6SM BKN017=

USA.gov is the U.S. government's official web portal to all federal, state and local government web resources and services.